Time;durP1;ratioP1;P1;durP2;ratioP2;P2;SDS_P1;SDS_P2;PMS_P1;PMS_P2;Temp;Humidity;BMP_temperature;BMP_pressure;BME280_temperature;BME280_humidity;BME280_pressure;Samples;Min_cycle;Max_cycle;Signal;HPM_P1;HPM_P2
2022/07/21 00:01:38;;;;;;;20.20;10.98;;;12.40;99.90;;;;;;5054988;28;20221;-80
2022/07/21 00:04:08;;;;;;;9.57;6.70;;;12.40;99.90;;;;;;5054931;28;20196;-79
2022/07/21 00:06:41;;;;;;;12.82;7.90;;;12.40;99.90;;;;;;5055991;28;20640;-80
2022/07/21 00:09:12;;;;;;;20.95;12.07;;;12.40;99.90;;;;;;5055886;28;20186;-79
2022/07/21 00:11:43;;;;;;;17.40;9.68;;;12.40;99.90;;;;;;5055821;28;20213;-80
2022/07/21 00:14:14;;;;;;;13.90;7.25;;;12.50;99.90;;;;;;5047545;28;20198;-77
2022/07/21 00:16:46;;;;;;;12.80;7.18;;;12.70;99.90;;;;;;5050486;28;20201;-80
2022/07/21 00:19:16;;;;;;;14.23;7.47;;;12.70;99.90;;;;;;5044178;28;20190;-82
2022/07/21 00:21:49;;;;;;;13.50;6.90;;;12.90;99.90;;;;;;5050819;28;20292;-81
2022/07/21 00:24:20;;;;;;;11.18;5.85;;;13.00;99.90;;;;;;5054586;28;20197;-81
2022/07/21 00:26:50;;;;;;;12.48;6.07;;;13.10;99.90;;;;;;5054279;28;20194;-80
2022/07/21 00:29:21;;;;;;;13.77;6.40;;;13.10;99.90;;;;;;5054380;28;20668;-81
2022/07/21 00:31:52;;;;;;;11.10;5.97;;;13.00;99.90;;;;;;5054221;28;20196;-81
2022/07/21 00:34:22;;;;;;;10.65;6.15;;;13.10;99.90;;;;;;5053498;28;20264;-80
2022/07/21 00:36:55;;;;;;;10.88;5.72;;;13.10;99.90;;;;;;5054098;28;20221;-80
2022/07/21 00:39:26;;;;;;;12.40;6.15;;;13.20;99.90;;;;;;5055049;28;20185;-79
2022/07/21 00:41:56;;;;;;;11.38;5.68;;;13.40;99.90;;;;;;5054975;28;20213;-80
2022/07/21 00:44:29;;;;;;;9.88;4.88;;;13.40;99.90;;;;;;5054860;28;20625;-80
2022/07/21 00:47:00;;;;;;;8.50;4.50;;;13.50;99.90;;;;;;5054470;28;20181;-80
2022/07/21 00:49:31;;;;;;;8.20;4.88;;;13.60;99.90;;;;;;5054234;28;20193;-80
2022/07/21 00:52:03;;;;;;;7.13;4.10;;;13.70;99.90;;;;;;5054851;28;20186;-79
2022/07/21 00:54:34;;;;;;;9.80;4.38;;;13.80;99.90;;;;;;5053163;28;20182;-72
2022/07/21 00:57:05;;;;;;;8.35;3.67;;;13.90;99.90;;;;;;5054751;28;20194;-73
2022/07/21 00:59:36;;;;;;;9.73;4.30;;;14.10;99.90;;;;;;5053561;28;20194;-78
2022/07/21 01:02:07;;;;;;;9.30;4.00;;;14.20;99.90;;;;;;5054856;28;20217;-77
2022/07/21 01:04:38;;;;;;;13.10;3.90;;;14.30;99.90;;;;;;5055208;28;20193;-75
2022/07/21 01:07:11;;;;;;;7.63;3.83;;;14.30;99.90;;;;;;5054930;28;20194;-75
2022/07/21 01:09:42;;;;;;;7.40;3.40;;;14.30;99.90;;;;;;5054530;28;20276;-73
2022/07/21 01:12:13;;;;;;;7.72;3.22;;;14.30;99.90;;;;;;5054517;28;20196;-76
2022/07/21 01:14:44;;;;;;;10.35;3.75;;;14.30;99.90;;;;;;5054388;28;20193;-73
2022/07/21 01:17:14;;;;;;;10.43;3.40;;;14.30;99.90;;;;;;5055646;28;20285;-73
2022/07/21 01:19:45;;;;;;;13.48;5.22;;;14.30;99.90;;;;;;5055241;28;20367;-73
2022/07/21 01:22:18;;;;;;;11.73;4.18;;;14.30;99.90;;;;;;5054621;28;20225;-73
2022/07/21 01:24:49;;;;;;;11.95;3.55;;;14.40;99.90;;;;;;5055157;28;20671;-76
2022/07/21 01:27:19;;;;;;;5.47;2.40;;;14.60;99.90;;;;;;5054571;28;20194;-74
2022/07/21 01:29:50;;;;;;;4.20;1.92;;;14.70;99.90;;;;;;5053520;28;20281;-77
2022/07/21 01:32:21;;;;;;;5.50;1.48;;;14.70;99.90;;;;;;5053465;28;20221;-72
2022/07/21 01:34:52;;;;;;;6.03;0.90;;;14.80;99.90;;;;;;5052839;28;20653;-80
2022/07/21 01:37:31;;;;;;;6.53;0.80;;;14.70;99.90;;;;;;5052786;28;20190;-82
2022/07/21 01:42:48;;;;;;;4.72;0.80;;;14.90;99.90;;;;;;5052697;28;20324;-80
2022/07/21 01:45:19;;;;;;;5.03;1.38;;;14.90;99.90;;;;;;5052176;28;20198;-79
2022/07/21 01:47:50;;;;;;;4.75;0.88;;;14.90;99.90;;;;;;5052545;28;20194;-81
2022/07/21 01:50:26;;;;;;;8.90;1.13;;;14.90;99.90;;;;;;5052424;28;20679;-73
2022/07/21 01:53:00;;;;;;;5.10;1.02;;;14.90;99.90;;;;;;5049698;28;20276;-74
2022/07/21 01:55:32;;;;;;;5.65;1.10;;;14.80;99.90;;;;;;5052462;28;20193;-73
2022/07/21 01:58:05;;;;;;;6.10;0.90;;;14.90;99.90;;;;;;5052350;28;20229;-73
2022/07/21 02:00:35;;;;;;;4.57;0.70;;;15.00;99.90;;;;;;5052516;28;20217;-73
2022/07/21 02:03:06;;;;;;;4.90;0.63;;;15.20;99.90;;;;;;5052544;28;20207;-72
2022/07/21 02:05:37;;;;;;;7.60;0.85;;;15.40;99.90;;;;;;5052318;28;20192;-82
2022/07/21 02:08:10;;;;;;;7.78;1.33;;;15.60;99.90;;;;;;5052573;28;20197;-80
2022/07/21 02:10:40;;;;;;;3.97;0.80;;;15.90;99.90;;;;;;5052302;28;20190;-82
2022/07/21 02:13:11;;;;;;;5.25;0.90;;;15.90;99.90;;;;;;5053351;28;20215;-86
2022/07/21 02:15:42;;;;;;;5.43;0.90;;;15.80;99.90;;;;;;5056374;28;20209;-81
2022/07/21 02:18:13;;;;;;;3.75;0.60;;;15.70;99.90;;;;;;5056727;28;20218;-78
2022/07/21 02:20:44;;;;;;;3.17;0.75;;;15.20;99.90;;;;;;5056292;28;20189;-81
2022/07/21 02:23:17;;;;;;;2.10;0.85;;;14.90;99.90;;;;;;5056508;28;20629;-83
2022/07/21 02:25:48;;;;;;;2.92;0.82;;;14.70;99.90;;;;;;5055911;28;20190;-80
2022/07/21 02:28:19;;;;;;;3.50;0.88;;;14.50;99.90;;;;;;5055763;28;20630;-79
2022/07/21 02:30:50;;;;;;;3.80;0.70;;;14.40;99.90;;;;;;5056186;28;20193;-77
2022/07/21 02:33:21;;;;;;;5.18;1.00;;;14.40;99.90;;;;;;5056186;28;20224;-79
2022/07/21 02:35:52;;;;;;;5.57;1.23;;;14.30;99.90;;;;;;5055922;28;20240;-81
2022/07/21 02:38:24;;;;;;;3.03;1.30;;;14.30;99.90;;;;;;5056397;28;20634;-81
2022/07/21 02:40:55;;;;;;;4.88;1.23;;;14.30;99.90;;;;;;5056478;28;20554;-80
2022/07/21 02:43:26;;;;;;;5.43;1.27;;;14.20;99.90;;;;;;5055986;28;20189;-79
2022/07/21 02:45:57;;;;;;;4.63;1.02;;;14.20;99.90;;;;;;5055662;28;20204;-80
2022/07/21 02:48:27;;;;;;;6.07;1.17;;;14.20;99.90;;;;;;5055880;28;20194;-80
2022/07/21 02:50:58;;;;;;;5.85;1.25;;;14.40;99.90;;;;;;5055989;28;20525;-80
2022/07/21 02:53:30;;;;;;;2.53;0.70;;;14.40;99.90;;;;;;5055687;28;20200;-79
2022/07/21 02:56:01;;;;;;;4.10;0.77;;;14.50;99.90;;;;;;5055065;28;20196;-80
2022/07/21 03:04:20;;;;;;;5.95;1.10;;;14.80;99.90;;;;;;5048775;28;20205;-80
2022/07/21 03:06:51;;;;;;;5.07;0.80;;;14.80;99.90;;;;;;5057143;28;20190;-80
2022/07/21 03:09:23;;;;;;;6.68;1.23;;;14.90;99.90;;;;;;5057403;28;20220;-86
2022/07/21 03:11:54;;;;;;;8.18;1.30;;;14.80;99.90;;;;;;5055234;28;20300;-82
2022/07/21 03:14:25;;;;;;;5.03;0.88;;;14.70;99.90;;;;;;5055047;28;20201;-81
2022/07/21 03:16:57;;;;;;;4.05;1.08;;;14.60;99.90;;;;;;5055180;28;20828;-83
2022/07/21 03:19:28;;;;;;;5.25;1.00;;;14.50;99.90;;;;;;5055357;28;20190;-82
2022/07/21 03:21:58;;;;;;;4.03;1.10;;;14.50;99.90;;;;;;5054649;28;20214;-82
2022/07/21 03:24:31;;;;;;;5.68;0.90;;;14.50;99.90;;;;;;5052876;28;20190;-83
2022/07/21 03:27:02;;;;;;;4.38;0.80;;;14.50;99.90;;;;;;5054657;28;20273;-82
2022/07/21 03:29:33;;;;;;;4.55;1.08;;;14.40;99.90;;;;;;5055544;28;20190;-86
2022/07/21 03:32:03;;;;;;;10.70;2.88;;;14.30;99.90;;;;;;5056974;28;20225;-85
2022/07/21 03:34:34;;;;;;;3.38;1.20;;;14.20;99.90;;;;;;5056050;28;20637;-83
2022/07/21 03:37:05;;;;;;;3.60;1.00;;;14.20;99.90;;;;;;5036865;28;20238;-81
2022/07/21 03:39:37;;;;;;;4.20;1.00;;;14.20;99.90;;;;;;5036472;28;20222;-83
2022/07/21 03:42:08;;;;;;;5.55;0.93;;;14.20;99.90;;;;;;5037118;28;20222;-81
2022/07/21 03:44:39;;;;;;;5.22;0.90;;;14.30;99.90;;;;;;5036576;28;20195;-81
2022/07/21 03:47:10;;;;;;;2.70;0.75;;;14.30;99.90;;;;;;5039827;28;20190;-82
2022/07/21 03:49:40;;;;;;;8.05;2.70;;;14.50;99.90;;;;;;5055191;28;20197;-83
2022/07/21 03:52:11;;;;;;;4.95;1.10;;;14.60;99.90;;;;;;5056255;28;20189;-83
2022/07/21 03:54:44;;;;;;;4.90;0.90;;;14.70;99.90;;;;;;5055196;28;20190;-82
2022/07/21 03:57:14;;;;;;;6.47;1.00;;;14.70;99.90;;;;;;5055445;28;20193;-82
2022/07/21 03:59:45;;;;;;;3.50;0.77;;;14.70;99.90;;;;;;5053896;28;20200;-73
2022/07/21 04:02:16;;;;;;;5.10;0.90;;;14.70;99.90;;;;;;5055039;28;20579;-72
2022/07/21 04:04:46;;;;;;;4.78;0.77;;;14.70;99.90;;;;;;5056096;28;20653;-75
2022/07/21 04:07:17;;;;;;;7.07;1.10;;;14.60;99.90;;;;;;5054977;28;20663;-73
2022/07/21 04:09:50;;;;;;;7.68;1.00;;;14.40;99.90;;;;;;5054913;28;20194;-79
2022/07/21 04:12:21;;;;;;;7.05;0.88;;;14.30;99.90;;;;;;5054490;28;20714;-76
2022/07/21 04:14:52;;;;;;;3.45;1.02;;;14.20;99.90;;;;;;5035658;28;20197;-81
2022/07/21 04:17:23;;;;;;;4.38;1.00;;;14.10;99.90;;;;;;5051585;28;20194;-74
2022/07/21 04:19:54;;;;;;;4.53;1.42;;;14.10;99.90;;;;;;5055039;28;20708;-74
2022/07/21 04:22:24;;;;;;;6.90;0.93;;;14.00;99.90;;;;;;5053994;28;20213;-74
2022/07/21 04:24:57;;;;;;;7.35;0.80;;;13.90;99.90;;;;;;5053775;28;20208;-73
2022/07/21 04:27:29;;;;;;;5.32;1.00;;;13.90;99.90;;;;;;5054104;28;20190;-73
2022/07/21 04:30:00;;;;;;;3.75;0.80;;;13.90;99.90;;;;;;5056775;28;20628;-72
2022/07/21 04:32:30;;;;;;;2.97;1.00;;;13.90;99.90;;;;;;5050240;28;20225;-71
2022/07/21 04:35:01;;;;;;;6.80;0.90;;;13.90;99.90;;;;;;5051538;28;20534;-71
2022/07/21 04:37:32;;;;;;;10.35;1.00;;;13.90;99.90;;;;;;5046312;28;20197;-71
2022/07/21 04:40:06;;;;;;;8.45;1.30;;;13.90;99.90;;;;;;5053571;28;20190;-72
2022/07/21 04:42:36;;;;;;;8.23;1.15;;;13.90;99.90;;;;;;5053609;28;20224;-71
2022/07/21 04:45:08;;;;;;;9.43;1.10;;;14.10;99.90;;;;;;5054783;28;20192;-71
2022/07/21 04:47:46;;;;;;;8.13;1.08;;;14.00;99.90;;;;;;5054889;28;20185;-72
2022/07/21 04:50:17;;;;;;;6.60;1.05;;;14.10;99.90;;;;;;5055308;28;20186;-70
2022/07/21 04:52:48;;;;;;;13.30;1.00;;;14.10;99.90;;;;;;5054719;28;20659;-73
2022/07/21 04:55:21;;;;;;;6.55;1.00;;;14.10;99.90;;;;;;5053952;28;20181;-72
2022/07/21 04:57:54;;;;;;;5.13;0.70;;;14.10;99.90;;;;;;5054372;28;20201;-73
2022/07/21 05:00:26;;;;;;;2.58;0.57;;;14.10;99.90;;;;;;5055240;28;20204;-71
2022/07/21 05:02:58;;;;;;;2.03;0.63;;;14.10;99.90;;;;;;5055085;28;20707;-71
2022/07/21 05:05:29;;;;;;;6.10;0.95;;;14.10;99.90;;;;;;5053897;28;20243;-74
2022/07/21 05:07:59;;;;;;;6.03;1.10;;;14.10;99.90;;;;;;5054065;28;20288;-71
2022/07/21 05:10:32;;;;;;;3.13;0.80;;;14.10;99.90;;;;;;5053903;28;20559;-73
2022/07/21 05:13:03;;;;;;;3.25;1.00;;;14.10;99.90;;;;;;5054679;28;20193;-71
2022/07/21 05:15:33;;;;;;;5.65;1.33;;;14.10;99.90;;;;;;5054670;28;20200;-74
2022/07/21 05:18:04;;;;;;;2.42;0.90;;;14.10;99.90;;;;;;5054029;28;20186;-72
2022/07/21 05:20:35;;;;;;;10.50;1.23;;;14.10;99.90;;;;;;5054159;28;20194;-72
2022/07/21 05:23:06;;;;;;;6.97;0.80;;;14.20;99.90;;;;;;5050704;28;20216;-74
2022/07/21 05:25:38;;;;;;;7.60;0.70;;;14.30;99.90;;;;;;5053644;28;20194;-76
2022/07/21 05:28:09;;;;;;;5.57;0.90;;;14.40;99.90;;;;;;5052483;28;20194;-76
2022/07/21 05:30:40;;;;;;;6.32;0.77;;;14.50;99.90;;;;;;5052750;28;20196;-72
2022/07/21 05:33:11;;;;;;;2.55;0.63;;;14.50;99.90;;;;;;5052069;28;20225;-72
2022/07/21 05:35:43;;;;;;;5.72;0.70;;;14.50;99.90;;;;;;5052138;28;20312;-77
2022/07/21 05:38:14;;;;;;;6.47;0.85;;;14.50;99.90;;;;;;5053154;28;20630;-73
2022/07/21 05:40:47;;;;;;;5.40;0.77;;;14.60;99.90;;;;;;5052673;28;20204;-75
2022/07/21 05:43:18;;;;;;;9.27;0.98;;;14.40;99.90;;;;;;5052787;28;20217;-73
2022/07/21 05:45:48;;;;;;;5.25;0.70;;;14.50;99.90;;;;;;5052596;28;20236;-72
2022/07/21 05:48:19;;;;;;;7.85;1.27;;;14.50;99.90;;;;;;5052083;28;20189;-72
2022/07/21 05:50:50;;;;;;;6.82;1.05;;;14.50;99.90;;;;;;5052325;28;20189;-73
2022/07/21 05:53:22;;;;;;;6.20;0.90;;;14.50;99.90;;;;;;5052466;28;20194;-74
2022/07/21 05:55:54;;;;;;;6.60;0.90;;;14.50;99.90;;;;;;5052358;28;20232;-73
2022/07/21 05:58:25;;;;;;;9.20;0.73;;;14.60;99.90;;;;;;5052743;28;20641;-73
2022/07/21 06:01:13;;;;;;;7.40;0.93;;;14.60;99.90;;;;;;5053109;28;20717;-75
2022/07/21 06:03:47;;;;;;;6.15;1.15;;;14.60;99.90;;;;;;5052543;28;20228;-78
2022/07/21 06:06:18;;;;;;;6.80;0.95;;;14.70;99.90;;;;;;5052253;28;20193;-77
2022/07/21 06:08:50;;;;;;;3.30;0.85;;;14.60;99.90;;;;;;5052263;28;20197;-79
2022/07/21 06:11:24;;;;;;;5.43;0.85;;;14.70;99.90;;;;;;5051979;28;20194;-76
2022/07/21 06:13:55;;;;;;;7.28;0.80;;;14.70;99.90;;;;;;5052115;28;20216;-78
2022/07/21 06:16:26;;;;;;;3.95;0.77;;;14.70;99.90;;;;;;5051866;28;20197;-79
2022/07/21 06:18:57;;;;;;;7.10;0.90;;;14.50;99.90;;;;;;5051833;28;20189;-81
2022/07/21 06:21:28;;;;;;;4.38;0.90;;;14.40;99.90;;;;;;5052654;28;20272;-78
2022/07/21 06:23:58;;;;;;;5.35;0.90;;;14.20;99.90;;;;;;5052583;28;20232;-83
2022/07/21 06:26:31;;;;;;;7.13;1.02;;;14.00;99.90;;;;;;5054329;28;20198;-82
2022/07/21 06:29:06;;;;;;;4.50;0.70;;;13.90;99.90;;;;;;5054714;28;20196;-81
2022/07/21 06:31:36;;;;;;;3.92;1.10;;;13.90;99.90;;;;;;5052963;28;20217;-80
2022/07/21 06:34:07;;;;;;;7.55;1.15;;;13.80;99.90;;;;;;5053207;28;20538;-80
2022/07/21 06:36:41;;;;;;;9.85;1.10;;;13.80;99.90;;;;;;5054469;28;20333;-80
2022/07/21 06:39:14;;;;;;;4.65;0.80;;;13.70;99.90;;;;;;5053545;28;20190;-76
2022/07/21 06:41:47;;;;;;;3.83;1.00;;;13.60;99.90;;;;;;5054646;28;20633;-83
2022/07/21 06:44:18;;;;;;;6.45;0.95;;;13.50;99.90;;;;;;5053910;28;20221;-79
2022/07/21 06:46:49;;;;;;;7.03;0.93;;;13.60;99.90;;;;;;5054206;28;20190;-81
2022/07/21 06:49:19;;;;;;;7.35;0.90;;;13.60;99.90;;;;;;5053715;28;20200;-82
2022/07/21 06:51:50;;;;;;;7.28;1.10;;;13.50;99.90;;;;;;5052713;28;20186;-80
2022/07/21 06:54:21;;;;;;;4.90;0.82;;;13.50;99.90;;;;;;5053112;28;20197;-82
2022/07/21 06:56:53;;;;;;;4.30;0.88;;;13.50;99.90;;;;;;5053575;28;20212;-80
2022/07/21 06:59:24;;;;;;;6.75;1.13;;;13.50;99.90;;;;;;5053292;28;20197;-81
2022/07/21 07:01:55;;;;;;;5.95;0.80;;;13.50;99.90;;;;;;5056959;28;20200;-81
2022/07/21 07:04:26;;;;;;;7.07;0.93;;;13.50;99.90;;;;;;5055706;28;20215;-81
2022/07/21 07:06:56;;;;;;;4.32;1.00;;;13.40;99.90;;;;;;5047230;28;20588;-80
2022/07/21 07:09:27;;;;;;;9.25;1.33;;;13.50;99.90;;;;;;5057042;28;20182;-80
2022/07/21 07:12:03;;;;;;;5.50;1.02;;;13.50;99.90;;;;;;5055975;28;20181;-79
2022/07/21 07:14:34;;;;;;;7.15;1.20;;;13.50;99.90;;;;;;5056514;28;20189;-81
2022/07/21 07:17:05;;;;;;;9.48;0.98;;;13.50;99.90;;;;;;5055881;28;20304;-80
2022/07/21 07:19:36;;;;;;;6.72;1.33;;;13.50;99.90;;;;;;5055718;28;20552;-79
2022/07/21 07:22:07;;;;;;;6.25;1.10;;;13.50;99.90;;;;;;5056006;28;20196;-79
2022/07/21 07:24:38;;;;;;;5.72;1.00;;;13.60;99.90;;;;;;5055092;28;20210;-80
2022/07/21 07:27:10;;;;;;;5.57;1.27;;;13.70;99.90;;;;;;5056802;28;20194;-80
2022/07/21 07:29:41;;;;;;;7.60;1.92;;;13.70;99.90;;;;;;5056131;28;20569;-80
2022/07/21 07:32:12;;;;;;;9.68;1.40;;;13.80;99.90;;;;;;5055209;28;20213;-81
2022/07/21 07:34:42;;;;;;;14.00;4.47;;;13.90;99.90;;;;;;5056367;28;20198;-80
2022/07/21 07:37:13;;;;;;;14.55;3.95;;;13.90;99.90;;;;;;5036421;28;20194;-79
2022/07/21 07:39:44;;;;;;;13.45;3.78;;;13.90;99.90;;;;;;5036338;28;20197;-83
2022/07/21 07:42:17;;;;;;;10.43;2.65;;;13.90;99.90;;;;;;5017292;28;20187;-79
2022/07/21 07:44:47;;;;;;;6.43;1.60;;;13.90;99.90;;;;;;5022015;28;20677;-80
2022/07/21 07:47:18;;;;;;;8.10;1.55;;;13.90;99.90;;;;;;5035386;28;20190;-81
2022/07/21 07:49:50;;;;;;;4.15;1.00;;;13.90;99.90;;;;;;5032944;28;20197;-78
2022/07/21 07:52:21;;;;;;;6.63;0.88;;;14.00;99.90;;;;;;5035278;28;20193;-83
2022/07/21 07:54:52;;;;;;;5.55;1.02;;;14.00;99.90;;;;;;5035446;28;20201;-80
2022/07/21 07:57:24;;;;;;;7.10;1.13;;;14.10;99.90;;;;;;5034865;28;20638;-78
2022/07/21 07:59:55;;;;;;;5.97;1.20;;;14.10;99.90;;;;;;5035655;28;20186;-78
2022/07/21 08:02:26;;;;;;;6.97;1.20;;;14.10;99.90;;;;;;5033764;28;20201;-79
2022/07/21 08:04:57;;;;;;;5.22;1.00;;;14.10;99.90;;;;;;5033501;28;20210;-79
2022/07/21 08:07:28;;;;;;;7.63;1.20;;;14.20;99.90;;;;;;5034190;28;20198;-79
2022/07/21 08:09:58;;;;;;;8.35;1.83;;;14.30;99.90;;;;;;5033563;28;20190;-80
2022/07/21 08:12:31;;;;;;;7.15;1.50;;;14.30;99.90;;;;;;5020109;28;20212;-78
2022/07/21 08:15:02;;;;;;;6.90;1.00;;;14.30;99.90;;;;;;5033103;28;20212;-79
2022/07/21 08:17:33;;;;;;;10.15;1.00;;;14.30;99.90;;;;;;5025498;28;20190;-79
2022/07/21 08:20:05;;;;;;;6.35;1.10;;;14.30;99.90;;;;;;5033255;28;20194;-81
2022/07/21 08:22:36;;;;;;;16.27;7.22;;;14.40;99.90;;;;;;5023657;28;20186;-82
2022/07/21 08:25:08;;;;;;;9.88;1.27;;;14.40;99.90;;;;;;5033541;28;20199;-80
2022/07/21 08:27:42;;;;;;;20.83;7.60;;;14.30;99.90;;;;;;5033495;28;20194;-80
2022/07/21 08:30:13;;;;;;;14.55;4.90;;;14.50;99.90;;;;;;5030875;28;20205;-83
2022/07/21 08:32:44;;;;;;;8.27;1.75;;;14.50;99.90;;;;;;5034614;28;20592;-82
2022/07/21 08:35:15;;;;;;;11.05;1.83;;;14.50;99.90;;;;;;5035768;28;20233;-80
2022/07/21 08:37:54;;;;;;;9.43;2.25;;;14.50;99.90;;;;;;5054069;28;20198;-80
2022/07/21 08:40:27;;;;;;;8.02;1.20;;;14.50;99.90;;;;;;5054370;28;20194;-83
2022/07/21 08:42:59;;;;;;;8.07;1.20;;;14.50;99.90;;;;;;5056474;28;20197;-81
2022/07/21 08:45:30;;;;;;;9.65;1.10;;;14.50;99.90;;;;;;5054434;28;20557;-79
2022/07/21 08:48:01;;;;;;;4.53;1.17;;;14.50;99.90;;;;;;5055300;28;20193;-81
2022/07/21 08:50:34;;;;;;;6.18;1.48;;;14.50;99.90;;;;;;5055118;28;20259;-81
2022/07/21 08:53:05;;;;;;;8.73;1.65;;;14.50;99.90;;;;;;5054243;28;20190;-80
2022/07/21 08:55:38;;;;;;;5.97;1.33;;;14.60;99.90;;;;;;5054200;28;20182;-80
2022/07/21 08:58:11;;;;;;;8.63;1.75;;;14.60;99.90;;;;;;5052497;28;20217;-83
2022/07/21 09:00:43;;;;;;;7.75;1.17;;;14.60;99.90;;;;;;5052536;28;20188;-79
2022/07/21 09:03:17;;;;;;;5.07;0.90;;;14.70;99.90;;;;;;5052682;28;20213;-79
2022/07/21 09:06:02;;;;;;;9.93;1.50;;;14.60;99.90;;;;;;5046724;28;20200;-79
2022/07/21 09:08:34;;;;;;;6.30;1.40;;;14.60;99.90;;;;;;5052079;28;20194;-81
2022/07/21 09:11:23;;;;;;;7.55;1.30;;;14.60;99.90;;;;;;5052795;28;20565;-82
2022/07/21 09:14:09;;;;;;;8.75;1.08;;;14.60;99.90;;;;;;5050527;28;20193;-79
2022/07/21 09:16:42;;;;;;;10.05;1.00;;;14.60;99.90;;;;;;5052966;28;20193;-80
2022/07/21 09:19:21;;;;;;;8.05;0.88;;;14.60;99.90;;;;;;5052468;28;20682;-80
2022/07/21 09:21:53;;;;;;;9.63;0.90;;;14.50;99.90;;;;;;5051437;28;20205;-81
2022/07/21 09:24:28;;;;;;;7.30;1.30;;;14.60;99.90;;;;;;5044792;28;20213;-82
2022/07/21 09:27:05;;;;;;;7.22;1.40;;;14.50;99.90;;;;;;5052359;28;20648;-80
2022/07/21 09:29:41;;;;;;;6.82;1.23;;;14.60;99.90;;;;;;5052904;28;20196;-80
2022/07/21 09:32:25;;;;;;;5.65;1.50;;;14.50;99.90;;;;;;5051846;28;20220;-80
2022/07/21 09:34:57;;;;;;;9.13;1.10;;;14.50;99.90;;;;;;5051421;28;20193;-79
2022/07/21 09:37:27;;;;;;;10.50;1.20;;;14.60;99.90;;;;;;5052089;28;20197;-80
2022/07/21 09:40:02;;;;;;;6.65;1.17;;;14.60;99.90;;;;;;5053161;28;20190;-80
2022/07/21 09:42:35;;;;;;;6.00;1.00;;;14.60;99.90;;;;;;5051977;28;20644;-83
2022/07/21 09:45:09;;;;;;;8.13;0.90;;;14.70;99.90;;;;;;5052371;28;20213;-82
2022/07/21 09:47:40;;;;;;;4.25;0.95;;;14.70;99.90;;;;;;5052083;28;20211;-80
2022/07/21 09:50:12;;;;;;;6.97;1.30;;;14.70;99.90;;;;;;5051978;28;20641;-79
2022/07/21 09:52:45;;;;;;;6.10;1.08;;;14.70;99.90;;;;;;5052308;28;20255;-85
2022/07/21 09:55:16;;;;;;;4.50;1.13;;;14.80;99.90;;;;;;5052139;28;20581;-85
2022/07/21 09:57:48;;;;;;;5.82;1.05;;;14.70;99.90;;;;;;5048592;28;20189;-81
2022/07/21 10:00:22;;;;;;;6.78;1.15;;;14.70;99.90;;;;;;5051032;28;20197;-80
2022/07/21 10:02:53;;;;;;;8.43;0.93;;;14.70;99.90;;;;;;5052831;28;20198;-81
2022/07/21 10:05:24;;;;;;;3.08;0.77;;;14.70;99.90;;;;;;5034922;28;20971;-80
2022/07/21 10:07:55;;;;;;;8.05;1.23;;;14.70;99.90;;;;;;5052139;28;20189;-80
2022/07/21 10:10:26;;;;;;;19.85;9.65;;;14.60;99.90;;;;;;5051525;28;20186;-80
2022/07/21 10:12:57;;;;;;;4.03;1.58;;;14.60;99.90;;;;;;5051852;28;20652;-82
2022/07/21 10:15:30;;;;;;;9.20;1.23;;;14.50;99.90;;;;;;5052397;28;20198;-80
2022/07/21 10:18:04;;;;;;;3.30;1.00;;;14.50;99.90;;;;;;5051787;28;20190;-79
2022/07/21 10:20:39;;;;;;;13.20;1.30;;;14.60;99.90;;;;;;5051849;28;20205;-82
2022/07/21 10:23:17;;;;;;;5.50;1.10;;;14.70;99.90;;;;;;5051683;28;20196;-81
2022/07/21 10:25:49;;;;;;;4.72;1.10;;;14.70;99.90;;;;;;5052107;28;20197;-81
2022/07/21 10:28:23;;;;;;;5.95;0.93;;;14.70;99.90;;;;;;5051418;28;20200;-79
2022/07/21 10:30:56;;;;;;;5.70;1.10;;;14.70;99.90;;;;;;5048976;28;20251;-81
2022/07/21 10:33:58;;;;;;;4.65;0.90;;;14.70;99.90;;;;;;5052166;28;20198;-82
2022/07/21 10:36:49;;;;;;;7.50;1.00;;;14.70;99.90;;;;;;5055347;28;20233;-84
2022/07/21 10:39:27;;;;;;;7.30;0.93;;;14.70;99.90;;;;;;5045736;28;20755;-78
2022/07/21 10:42:02;;;;;;;2.90;0.77;;;14.70;99.90;;;;;;5055880;28;20200;-79
2022/07/21 10:44:44;;;;;;;4.55;1.02;;;14.70;99.90;;;;;;5055484;28;20672;-80
2022/07/21 10:47:20;;;;;;;6.55;0.88;;;14.70;99.90;;;;;;5044574;28;20190;-81
2022/07/21 10:49:56;;;;;;;6.60;0.90;;;14.70;99.90;;;;;;5052211;28;20193;-78
2022/07/21 10:53:00;;;;;;;4.68;1.05;;;14.80;99.90;;;;;;5054345;28;20193;-78
2022/07/21 10:55:32;;;;;;;10.45;1.30;;;14.90;99.90;;;;;;5054795;28;20189;-80
2022/07/21 10:58:17;;;;;;;6.20;1.00;;;14.90;99.90;;;;;;5055370;28;20236;-78
2022/07/21 11:00:50;;;;;;;5.88;0.90;;;14.90;99.90;;;;;;5055491;28;20190;-81
2022/07/21 11:03:26;;;;;;;4.68;0.90;;;14.90;99.90;;;;;;5055223;28;20194;-83
2022/07/21 11:06:27;;;;;;;7.57;1.15;;;14.90;99.90;;;;;;5055395;28;20225;-78
2022/07/21 11:09:10;;;;;;;4.60;1.17;;;14.80;99.90;;;;;;5054992;28;20201;-77
2022/07/21 11:11:42;;;;;;;7.40;0.90;;;14.80;99.90;;;;;;5054636;28;20539;-74
2022/07/21 11:14:14;;;;;;;6.30;0.93;;;14.80;99.90;;;;;;5055316;28;20200;-75
2022/07/21 11:17:11;;;;;;;6.68;1.02;;;14.70;99.90;;;;;;5055382;28;20190;-81
2022/07/21 11:19:49;;;;;;;3.92;1.23;;;14.80;99.90;;;;;;5055025;28;20189;-80
2022/07/21 11:22:22;;;;;;;6.57;0.77;;;14.90;99.90;;;;;;5055027;28;20189;-81
2022/07/21 11:24:54;;;;;;;4.93;0.77;;;14.90;99.90;;;;;;5054737;28;20580;-80
2022/07/21 11:27:27;;;;;;;6.03;1.35;;;14.90;99.90;;;;;;5054312;28;20671;-79
2022/07/21 11:30:01;;;;;;;5.10;0.75;;;14.90;99.90;;;;;;5035049;28;20192;-82
2022/07/21 11:32:31;;;;;;;6.07;1.08;;;14.90;99.90;;;;;;5050708;28;20224;-89
2022/07/21 11:35:06;;;;;;;5.57;0.90;;;14.90;99.90;;;;;;5054634;28;20194;-82
2022/07/21 11:37:38;;;;;;;5.63;1.00;;;14.60;99.90;;;;;;5054553;28;20208;-85
2022/07/21 11:40:11;;;;;;;2.60;0.75;;;14.30;99.90;;;;;;5055100;28;20188;-80
2022/07/21 11:42:42;;;;;;;5.25;0.88;;;14.10;99.90;;;;;;5055990;28;20281;-82
2022/07/21 11:45:14;;;;;;;5.75;0.80;;;13.90;99.90;;;;;;5055787;28;20701;-84
2022/07/21 11:47:45;;;;;;;6.03;0.90;;;13.80;99.90;;;;;;5056775;28;20200;-80
2022/07/21 11:50:20;;;;;;;5.38;1.00;;;13.70;99.90;;;;;;5054757;28;20343;-80
2022/07/21 11:52:52;;;;;;;7.47;0.80;;;13.70;99.90;;;;;;5054077;28;20197;-80
2022/07/21 11:55:22;;;;;;;6.35;1.10;;;13.70;99.90;;;;;;5054274;28;20561;-82
2022/07/21 11:57:53;;;;;;;5.07;0.75;;;13.70;99.90;;;;;;5054629;28;20197;-82
2022/07/21 12:00:27;;;;;;;2.42;0.70;;;13.60;99.90;;;;;;5054483;28;20868;-81
2022/07/21 12:03:08;;;;;;;4.78;0.90;;;13.50;99.90;;;;;;5054159;28;20190;-80
2022/07/21 12:05:41;;;;;;;4.85;0.95;;;13.50;99.90;;;;;;5054194;28;20267;-79
2022/07/21 12:08:12;;;;;;;9.07;1.00;;;13.50;99.90;;;;;;5053469;28;20193;-79
2022/07/21 12:10:43;;;;;;;7.35;0.88;;;13.50;99.90;;;;;;5054246;28;20194;-81
2022/07/21 12:13:13;;;;;;;5.38;1.10;;;13.50;99.90;;;;;;5054547;28;20190;-79
2022/07/21 12:15:44;;;;;;;8.95;1.08;;;13.40;99.90;;;;;;5054199;28;20193;-79
2022/07/21 12:18:23;;;;;;;4.93;0.82;;;13.40;99.90;;;;;;5053963;28;20215;-79
2022/07/21 12:21:05;;;;;;;5.15;0.82;;;13.40;99.90;;;;;;5054067;28;20204;-80
2022/07/21 12:23:36;;;;;;;8.93;1.10;;;13.30;99.90;;;;;;5053949;28;20664;-81
2022/07/21 12:26:07;;;;;;;4.80;0.90;;;13.30;99.90;;;;;;5052630;28;20230;-80
2022/07/21 12:28:48;;;;;;;7.35;1.05;;;13.20;99.90;;;;;;5053578;28;20190;-72
2022/07/21 12:31:21;;;;;;;4.72;0.80;;;13.20;99.90;;;;;;5052623;28;20221;-78
2022/07/21 12:33:53;;;;;;;5.35;0.85;;;13.20;99.90;;;;;;5053201;28;20193;-79
2022/07/21 12:36:28;;;;;;;4.32;1.13;;;13.10;99.90;;;;;;5053019;28;20260;-82
2022/07/21 12:38:58;;;;;;;7.93;0.80;;;13.10;99.90;;;;;;5053720;28;20189;-83
2022/07/21 12:41:29;;;;;;;2.83;0.70;;;13.10;99.90;;;;;;5053343;28;20194;-83
2022/07/21 12:44:02;;;;;;;6.78;0.75;;;13.00;99.90;;;;;;5052917;28;20189;-82
2022/07/21 12:46:34;;;;;;;3.40;0.82;;;13.10;99.90;;;;;;5053572;28;20189;-81
2022/07/21 12:49:09;;;;;;;3.50;0.65;;;13.00;99.90;;;;;;5053459;28;20198;-82
2022/07/21 12:51:43;;;;;;;6.18;0.80;;;13.00;99.90;;;;;;5052676;28;20193;-82
2022/07/21 12:54:13;;;;;;;4.13;0.43;;;13.00;99.90;;;;;;5053127;28;20190;-83
2022/07/21 12:56:44;;;;;;;2.00;0.52;;;13.00;99.90;;;;;;5053168;28;20198;-81
2022/07/21 12:59:15;;;;;;;1.95;0.73;;;13.10;99.90;;;;;;5053034;28;20198;-80
2022/07/21 13:01:46;;;;;;;5.78;0.57;;;13.10;99.90;;;;;;5052569;28;20661;-85
2022/07/21 13:04:17;;;;;;;4.47;0.50;;;13.20;99.90;;;;;;5052416;28;20197;-81
2022/07/21 13:06:50;;;;;;;4.00;0.90;;;13.30;99.90;;;;;;5053045;28;20190;-82
2022/07/21 13:09:20;;;;;;;6.40;0.73;;;13.40;99.90;;;;;;5052840;28;20193;-82
2022/07/21 13:11:51;;;;;;;3.88;0.80;;;13.50;99.90;;;;;;5053129;28;20189;-83
2022/07/21 13:14:22;;;;;;;5.40;0.80;;;13.40;99.90;;;;;;5053040;28;20200;-80
2022/07/21 13:16:52;;;;;;;4.18;0.50;;;13.40;99.90;;;;;;5052737;28;20559;-81
2022/07/21 13:19:23;;;;;;;5.10;0.88;;;13.30;99.90;;;;;;5052390;28;20583;-80
2022/07/21 13:21:56;;;;;;;2.63;0.80;;;13.30;99.90;;;;;;5053047;28;20190;-81